sensor_id;sensor_type;location;lat;lon;timestamp;P1;durP1;ratioP1;P2;durP2;ratioP2
66979;SDS011;54048;51.468;-2.572;2022-10-19T00:01:46;5.97;;;1.65;;
66979;SDS011;54048;51.468;-2.572;2022-10-19T00:04:18;5.50;;;1.85;;
66979;SDS011;54048;51.468;-2.572;2022-10-19T00:06:48;9.32;;;1.92;;
66979;SDS011;54048;51.468;-2.572;2022-10-19T00:09:17;6.78;;;1.65;;
66979;SDS011;54048;51.468;-2.572;2022-10-19T00:11:52;6.72;;;1.88;;
66979;SDS011;54048;51.468;-2.572;2022-10-19T00:14:21;7.38;;;1.90;;
66979;SDS011;54048;51.468;-2.572;2022-10-19T00:19:34;9.23;;;1.98;;
66979;SDS011;54048;51.468;-2.572;2022-10-19T00:24:55;8.30;;;1.88;;
66979;SDS011;54048;51.468;-2.572;2022-10-19T00:27:39;5.93;;;1.45;;
66979;SDS011;54048;51.468;-2.572;2022-10-19T00:30:25;5.70;;;1.88;;
66979;SDS011;54048;51.468;-2.572;2022-10-19T00:32:54;8.38;;;1.70;;
66979;SDS011;54048;51.468;-2.572;2022-10-19T00:35:50;6.75;;;2.22;;
66979;SDS011;54048;51.468;-2.572;2022-10-19T00:38:20;7.30;;;1.88;;
66979;SDS011;54048;51.468;-2.572;2022-10-19T00:41:15;8.90;;;1.77;;
66979;SDS011;54048;51.468;-2.572;2022-10-19T00:44:04;6.43;;;1.73;;
66979;SDS011;54048;51.468;-2.572;2022-10-19T00:46:35;6.60;;;1.63;;
66979;SDS011;54048;51.468;-2.572;2022-10-19T00:49:22;6.00;;;1.50;;
66979;SDS011;54048;51.468;-2.572;2022-10-19T00:52:13;5.85;;;1.63;;
66979;SDS011;54048;51.468;-2.572;2022-10-19T00:54:48;8.15;;;2.33;;
66979;SDS011;54048;51.468;-2.572;2022-10-19T00:57:20;8.15;;;1.80;;
66979;SDS011;54048;51.468;-2.572;2022-10-19T01:02:36;6.88;;;1.60;;
66979;SDS011;54048;51.468;-2.572;2022-10-19T01:05:10;2.72;;;1.65;;
66979;SDS011;54048;51.468;-2.572;2022-10-19T01:07:42;5.80;;;1.70;;
66979;SDS011;54048;51.468;-2.572;2022-10-19T01:10:13;3.95;;;1.60;;
66979;SDS011;54048;51.468;-2.572;2022-10-19T01:21:28;6.15;;;1.88;;
66979;SDS011;54048;51.468;-2.572;2022-10-19T01:27:52;6.80;;;1.92;;
66979;SDS011;54048;51.468;-2.572;2022-10-19T01:30:57;6.25;;;1.83;;
66979;SDS011;54048;51.468;-2.572;2022-10-19T01:36:40;4.13;;;1.88;;
66979;SDS011;54048;51.468;-2.572;2022-10-19T01:45:51;11.60;;;2.20;;
66979;SDS011;54048;51.468;-2.572;2022-10-19T01:51:56;6.13;;;1.60;;
66979;SDS011;54048;51.468;-2.572;2022-10-19T01:54:42;9.68;;;1.67;;
66979;SDS011;54048;51.468;-2.572;2022-10-19T01:57:17;7.82;;;1.73;;
66979;SDS011;54048;51.468;-2.572;2022-10-19T01:59:53;9.02;;;2.00;;
66979;SDS011;54048;51.468;-2.572;2022-10-19T02:02:24;7.75;;;1.80;;
66979;SDS011;54048;51.468;-2.572;2022-10-19T02:05:02;8.23;;;1.75;;
66979;SDS011;54048;51.468;-2.572;2022-10-19T02:07:29;12.40;;;1.92;;
66979;SDS011;54048;51.468;-2.572;2022-10-19T02:09:59;10.70;;;2.05;;
66979;SDS011;54048;51.468;-2.572;2022-10-19T02:12:37;10.55;;;2.20;;
66979;SDS011;54048;51.468;-2.572;2022-10-19T02:15:35;9.05;;;2.45;;
66979;SDS011;54048;51.468;-2.572;2022-10-19T02:18:07;7.18;;;2.08;;
66979;SDS011;54048;51.468;-2.572;2022-10-19T02:20:40;6.53;;;1.92;;
66979;SDS011;54048;51.468;-2.572;2022-10-19T02:23:11;11.48;;;2.33;;
66979;SDS011;54048;51.468;-2.572;2022-10-19T02:26:18;9.82;;;2.72;;
66979;SDS011;54048;51.468;-2.572;2022-10-19T02:32:04;10.70;;;2.70;;
66979;SDS011;54048;51.468;-2.572;2022-10-19T02:34:39;12.35;;;2.85;;
66979;SDS011;54048;51.468;-2.572;2022-10-19T02:37:10;6.63;;;2.53;;
66979;SDS011;54048;51.468;-2.572;2022-10-19T02:39:54;8.00;;;2.78;;
66979;SDS011;54048;51.468;-2.572;2022-10-19T02:42:42;16.55;;;2.72;;
66979;SDS011;54048;51.468;-2.572;2022-10-19T02:45:23;7.72;;;2.45;;
66979;SDS011;54048;51.468;-2.572;2022-10-19T02:48:03;16.70;;;2.90;;
66979;SDS011;54048;51.468;-2.572;2022-10-19T02:50:44;9.00;;;2.97;;
66979;SDS011;54048;51.468;-2.572;2022-10-19T02:56:24;15.25;;;2.90;;
66979;SDS011;54048;51.468;-2.572;2022-10-19T02:58:54;10.98;;;2.83;;
66979;SDS011;54048;51.468;-2.572;2022-10-19T03:01:25;8.25;;;2.63;;
66979;SDS011;54048;51.468;-2.572;2022-10-19T03:04:00;12.82;;;3.03;;
66979;SDS011;54048;51.468;-2.572;2022-10-19T03:06:48;8.20;;;2.47;;
66979;SDS011;54048;51.468;-2.572;2022-10-19T03:09:26;15.60;;;3.00;;
66979;SDS011;54048;51.468;-2.572;2022-10-19T03:12:10;11.18;;;3.30;;
66979;SDS011;54048;51.468;-2.572;2022-10-19T03:14:47;13.27;;;2.85;;
66979;SDS011;54048;51.468;-2.572;2022-10-19T03:17:39;5.00;;;2.63;;
66979;SDS011;54048;51.468;-2.572;2022-10-19T03:20:13;9.68;;;2.60;;
66979;SDS011;54048;51.468;-2.572;2022-10-19T03:23:18;10.75;;;3.20;;
66979;SDS011;54048;51.468;-2.572;2022-10-19T03:25:57;15.30;;;3.35;;
66979;SDS011;54048;51.468;-2.572;2022-10-19T03:28:27;9.60;;;3.30;;
66979;SDS011;54048;51.468;-2.572;2022-10-19T03:31:04;7.93;;;3.20;;
66979;SDS011;54048;51.468;-2.572;2022-10-19T03:33:41;12.07;;;2.72;;
66979;SDS011;54048;51.468;-2.572;2022-10-19T03:36:25;8.20;;;2.70;;
66979;SDS011;54048;51.468;-2.572;2022-10-19T03:38:53;14.00;;;2.92;;
66979;SDS011;54048;51.468;-2.572;2022-10-19T03:41:39;11.38;;;2.83;;
66979;SDS011;54048;51.468;-2.572;2022-10-19T03:44:15;8.10;;;3.00;;
66979;SDS011;54048;51.468;-2.572;2022-10-19T03:46:41;8.35;;;2.75;;
66979;SDS011;54048;51.468;-2.572;2022-10-19T03:49:17;8.15;;;2.70;;
66979;SDS011;54048;51.468;-2.572;2022-10-19T03:51:52;6.30;;;3.08;;
66979;SDS011;54048;51.468;-2.572;2022-10-19T03:54:35;9.38;;;3.55;;
66979;SDS011;54048;51.468;-2.572;2022-10-19T03:57:17;10.70;;;3.08;;
66979;SDS011;54048;51.468;-2.572;2022-10-19T03:59:59;11.68;;;3.13;;
66979;SDS011;54048;51.468;-2.572;2022-10-19T04:02:45;16.42;;;3.40;;
66979;SDS011;54048;51.468;-2.572;2022-10-19T04:05:10;15.23;;;2.90;;
66979;SDS011;54048;51.468;-2.572;2022-10-19T04:07:51;19.63;;;3.72;;
66979;SDS011;54048;51.468;-2.572;2022-10-19T04:10:57;13.85;;;3.22;;
66979;SDS011;54048;51.468;-2.572;2022-10-19T04:13:30;8.43;;;3.13;;
66979;SDS011;54048;51.468;-2.572;2022-10-19T04:18:46;9.15;;;3.25;;
66979;SDS011;54048;51.468;-2.572;2022-10-19T04:21:31;12.73;;;3.13;;
66979;SDS011;54048;51.468;-2.572;2022-10-19T04:26:34;11.65;;;3.30;;
66979;SDS011;54048;51.468;-2.572;2022-10-19T04:31:39;10.32;;;2.90;;
66979;SDS011;54048;51.468;-2.572;2022-10-19T04:34:07;8.00;;;3.08;;
66979;SDS011;54048;51.468;-2.572;2022-10-19T04:36:58;7.65;;;3.00;;
66979;SDS011;54048;51.468;-2.572;2022-10-19T04:39:25;8.50;;;2.90;;
66979;SDS011;54048;51.468;-2.572;2022-10-19T04:41:54;18.67;;;4.10;;
66979;SDS011;54048;51.468;-2.572;2022-10-19T04:44:37;10.38;;;3.03;;
66979;SDS011;54048;51.468;-2.572;2022-10-19T04:47:14;8.75;;;3.40;;
66979;SDS011;54048;51.468;-2.572;2022-10-19T04:49:46;9.18;;;3.70;;
66979;SDS011;54048;51.468;-2.572;2022-10-19T04:52:15;12.10;;;3.30;;
66979;SDS011;54048;51.468;-2.572;2022-10-19T04:54:51;16.27;;;3.70;;
66979;SDS011;54048;51.468;-2.572;2022-10-19T04:57:48;11.60;;;3.30;;
66979;SDS011;54048;51.468;-2.572;2022-10-19T05:00:16;7.20;;;3.22;;
66979;SDS011;54048;51.468;-2.572;2022-10-19T05:03:02;15.70;;;3.40;;
66979;SDS011;54048;51.468;-2.572;2022-10-19T05:05:30;10.05;;;3.47;;
66979;SDS011;54048;51.468;-2.572;2022-10-19T05:07:57;10.98;;;2.88;;
66979;SDS011;54048;51.468;-2.572;2022-10-19T05:10:27;13.00;;;3.45;;
66979;SDS011;54048;51.468;-2.572;2022-10-19T05:13:04;12.65;;;3.03;;
66979;SDS011;54048;51.468;-2.572;2022-10-19T05:15:36;16.40;;;4.20;;
66979;SDS011;54048;51.468;-2.572;2022-10-19T05:18:11;6.45;;;3.10;;
66979;SDS011;54048;51.468;-2.572;2022-10-19T05:20:44;12.82;;;3.50;;
66979;SDS011;54048;51.468;-2.572;2022-10-19T05:23:14;10.50;;;3.00;;
66979;SDS011;54048;51.468;-2.572;2022-10-19T05:25:45;10.35;;;3.00;;
66979;SDS011;54048;51.468;-2.572;2022-10-19T05:28:23;18.20;;;4.53;;
66979;SDS011;54048;51.468;-2.572;2022-10-19T05:31:03;12.48;;;3.35;;
66979;SDS011;54048;51.468;-2.572;2022-10-19T05:33:37;6.97;;;3.30;;
66979;SDS011;54048;51.468;-2.572;2022-10-19T05:36:18;10.68;;;3.22;;
66979;SDS011;54048;51.468;-2.572;2022-10-19T05:38:56;16.02;;;3.50;;
66979;SDS011;54048;51.468;-2.572;2022-10-19T05:41:35;10.20;;;3.47;;
66979;SDS011;54048;51.468;-2.572;2022-10-19T05:44:06;15.02;;;3.67;;
66979;SDS011;54048;51.468;-2.572;2022-10-19T05:46:45;9.18;;;3.75;;
66979;SDS011;54048;51.468;-2.572;2022-10-19T05:49:17;12.07;;;3.55;;
66979;SDS011;54048;51.468;-2.572;2022-10-19T05:52:08;12.82;;;3.20;;
66979;SDS011;54048;51.468;-2.572;2022-10-19T05:54:54;19.40;;;3.85;;
66979;SDS011;54048;51.468;-2.572;2022-10-19T05:57:22;11.38;;;3.22;;
66979;SDS011;54048;51.468;-2.572;2022-10-19T05:59:54;9.85;;;3.42;;
66979;SDS011;54048;51.468;-2.572;2022-10-19T06:02:25;6.85;;;3.05;;
66979;SDS011;54048;51.468;-2.572;2022-10-19T06:05:00;10.77;;;3.15;;
66979;SDS011;54048;51.468;-2.572;2022-10-19T06:07:40;11.63;;;2.88;;
66979;SDS011;54048;51.468;-2.572;2022-10-19T06:10:13;11.00;;;2.97;;
66979;SDS011;54048;51.468;-2.572;2022-10-19T06:12:42;12.30;;;3.35;;
66979;SDS011;54048;51.468;-2.572;2022-10-19T06:21:07;8.43;;;3.42;;
66979;SDS011;54048;51.468;-2.572;2022-10-19T06:23:48;8.52;;;3.00;;
66979;SDS011;54048;51.468;-2.572;2022-10-19T06:26:24;10.40;;;3.00;;
66979;SDS011;54048;51.468;-2.572;2022-10-19T06:29:06;12.02;;;3.00;;
66979;SDS011;54048;51.468;-2.572;2022-10-19T06:31:45;11.48;;;3.05;;
66979;SDS011;54048;51.468;-2.572;2022-10-19T06:34:25;7.45;;;2.88;;
66979;SDS011;54048;51.468;-2.572;2022-10-19T06:37:01;7.75;;;2.95;;
66979;SDS011;54048;51.468;-2.572;2022-10-19T06:39:47;13.30;;;3.10;;
66979;SDS011;54048;51.468;-2.572;2022-10-19T06:42:15;10.88;;;3.40;;
66979;SDS011;54048;51.468;-2.572;2022-10-19T06:44:58;9.48;;;3.47;;
66979;SDS011;54048;51.468;-2.572;2022-10-19T06:47:42;10.57;;;3.28;;
66979;SDS011;54048;51.468;-2.572;2022-10-19T06:50:11;11.02;;;3.50;;
66979;SDS011;54048;51.468;-2.572;2022-10-19T06:52:45;10.50;;;3.50;;
66979;SDS011;54048;51.468;-2.572;2022-10-19T06:55:13;12.02;;;4.15;;
66979;SDS011;54048;51.468;-2.572;2022-10-19T06:57:50;8.70;;;3.30;;
66979;SDS011;54048;51.468;-2.572;2022-10-19T07:00:19;13.77;;;3.90;;
66979;SDS011;54048;51.468;-2.572;2022-10-19T07:02:57;9.45;;;3.58;;
66979;SDS011;54048;51.468;-2.572;2022-10-19T07:05:34;11.27;;;3.45;;
66979;SDS011;54048;51.468;-2.572;2022-10-19T07:08:04;12.93;;;3.95;;
66979;SDS011;54048;51.468;-2.572;2022-10-19T07:10:33;13.27;;;4.22;;
66979;SDS011;54048;51.468;-2.572;2022-10-19T07:16:15;13.32;;;3.72;;
66979;SDS011;54048;51.468;-2.572;2022-10-19T07:18:54;10.98;;;3.65;;
66979;SDS011;54048;51.468;-2.572;2022-10-19T07:21:31;10.65;;;3.55;;
66979;SDS011;54048;51.468;-2.572;2022-10-19T07:24:02;9.68;;;3.63;;
66979;SDS011;54048;51.468;-2.572;2022-10-19T07:26:40;13.27;;;3.97;;
66979;SDS011;54048;51.468;-2.572;2022-10-19T07:29:14;12.90;;;3.60;;
66979;SDS011;54048;51.468;-2.572;2022-10-19T07:31:42;15.13;;;4.18;;
66979;SDS011;54048;51.468;-2.572;2022-10-19T07:36:57;14.85;;;4.28;;
66979;SDS011;54048;51.468;-2.572;2022-10-19T07:39:28;12.65;;;3.70;;
66979;SDS011;54048;51.468;-2.572;2022-10-19T07:42:10;16.30;;;4.30;;
66979;SDS011;54048;51.468;-2.572;2022-10-19T07:47:20;11.77;;;3.70;;
66979;SDS011;54048;51.468;-2.572;2022-10-19T07:50:11;17.48;;;4.22;;
66979;SDS011;54048;51.468;-2.572;2022-10-19T07:53:01;10.32;;;4.05;;
66979;SDS011;54048;51.468;-2.572;2022-10-19T07:55:36;10.80;;;4.45;;
66979;SDS011;54048;51.468;-2.572;2022-10-19T07:58:25;13.68;;;4.75;;
66979;SDS011;54048;51.468;-2.572;2022-10-19T08:01:18;13.15;;;4.53;;
66979;SDS011;54048;51.468;-2.572;2022-10-19T08:04:11;15.50;;;4.72;;
66979;SDS011;54048;51.468;-2.572;2022-10-19T08:07:00;17.88;;;5.20;;
66979;SDS011;54048;51.468;-2.572;2022-10-19T08:09:30;17.98;;;5.88;;
66979;SDS011;54048;51.468;-2.572;2022-10-19T08:12:20;17.20;;;4.45;;
66979;SDS011;54048;51.468;-2.572;2022-10-19T08:18:31;16.73;;;4.85;;
66979;SDS011;54048;51.468;-2.572;2022-10-19T08:21:02;15.40;;;5.68;;
66979;SDS011;54048;51.468;-2.572;2022-10-19T08:23:52;13.85;;;4.63;;
66979;SDS011;54048;51.468;-2.572;2022-10-19T08:26:18;15.50;;;4.90;;
66979;SDS011;54048;51.468;-2.572;2022-10-19T08:29:25;10.75;;;4.05;;
66979;SDS011;54048;51.468;-2.572;2022-10-19T08:32:09;12.07;;;4.97;;
66979;SDS011;54048;51.468;-2.572;2022-10-19T08:34:40;10.75;;;4.38;;
66979;SDS011;54048;51.468;-2.572;2022-10-19T08:37:30;13.00;;;4.90;;
66979;SDS011;54048;51.468;-2.572;2022-10-19T08:40:06;12.85;;;5.28;;
66979;SDS011;54048;51.468;-2.572;2022-10-19T08:48:28;9.90;;;4.10;;
66979;SDS011;54048;51.468;-2.572;2022-10-19T08:51:10;16.05;;;4.50;;
66979;SDS011;54048;51.468;-2.572;2022-10-19T08:53:42;12.93;;;4.05;;
66979;SDS011;54048;51.468;-2.572;2022-10-19T08:56:35;14.88;;;4.28;;
66979;SDS011;54048;51.468;-2.572;2022-10-19T09:08:06;9.38;;;3.70;;
66979;SDS011;54048;51.468;-2.572;2022-10-19T09:10:58;14.25;;;4.43;;
66979;SDS011;54048;51.468;-2.572;2022-10-19T09:14:02;7.72;;;3.33;;
66979;SDS011;54048;51.468;-2.572;2022-10-19T09:16:51;8.85;;;3.30;;
66979;SDS011;54048;51.468;-2.572;2022-10-19T09:19:55;13.80;;;3.20;;
66979;SDS011;54048;51.468;-2.572;2022-10-19T09:22:33;11.93;;;3.50;;
66979;SDS011;54048;51.468;-2.572;2022-10-19T09:25:13;11.30;;;3.40;;
66979;SDS011;54048;51.468;-2.572;2022-10-19T09:27:46;10.40;;;3.00;;
66979;SDS011;54048;51.468;-2.572;2022-10-19T09:30:29;9.02;;;2.85;;
66979;SDS011;54048;51.468;-2.572;2022-10-19T09:33:13;8.45;;;2.90;;
66979;SDS011;54048;51.468;-2.572;2022-10-19T09:35:56;8.35;;;3.35;;
66979;SDS011;54048;51.468;-2.572;2022-10-19T09:41:50;10.90;;;3.15;;
66979;SDS011;54048;51.468;-2.572;2022-10-19T09:44:25;9.40;;;2.78;;
66979;SDS011;54048;51.468;-2.572;2022-10-19T09:52:52;11.13;;;3.13;;
66979;SDS011;54048;51.468;-2.572;2022-10-19T09:55:47;10.77;;;2.80;;
66979;SDS011;54048;51.468;-2.572;2022-10-19T09:58:27;9.35;;;2.60;;
66979;SDS011;54048;51.468;-2.572;2022-10-19T10:03:43;9.60;;;2.65;;
66979;SDS011;54048;51.468;-2.572;2022-10-19T10:06:14;9.80;;;2.78;;
66979;SDS011;54048;51.468;-2.572;2022-10-19T10:08:51;9.05;;;3.35;;
66979;SDS011;54048;51.468;-2.572;2022-10-19T10:11:26;8.27;;;2.40;;
66979;SDS011;54048;51.468;-2.572;2022-10-19T10:13:53;6.13;;;2.50;;
66979;SDS011;54048;51.468;-2.572;2022-10-19T10:16:20;10.63;;;2.78;;
66979;SDS011;54048;51.468;-2.572;2022-10-19T10:18:52;7.93;;;2.33;;
66979;SDS011;54048;51.468;-2.572;2022-10-19T10:23:58;9.70;;;2.65;;
66979;SDS011;54048;51.468;-2.572;2022-10-19T10:26:25;10.05;;;2.80;;
66979;SDS011;54048;51.468;-2.572;2022-10-19T10:28:50;12.00;;;3.40;;
66979;SDS011;54048;51.468;-2.572;2022-10-19T10:31:26;8.07;;;2.70;;
66979;SDS011;54048;51.468;-2.572;2022-10-19T10:33:54;13.07;;;3.10;;
66979;SDS011;54048;51.468;-2.572;2022-10-19T10:36:22;11.65;;;3.10;;
66979;SDS011;54048;51.468;-2.572;2022-10-19T10:38:50;8.10;;;2.60;;
66979;SDS011;54048;51.468;-2.572;2022-10-19T10:41:19;12.05;;;2.63;;
66979;SDS011;54048;51.468;-2.572;2022-10-19T10:43:54;8.88;;;2.75;;
66979;SDS011;54048;51.468;-2.572;2022-10-19T10:46:25;8.75;;;2.50;;
66979;SDS011;54048;51.468;-2.572;2022-10-19T10:48:58;12.55;;;3.10;;
66979;SDS011;54048;51.468;-2.572;2022-10-19T10:54:08;8.63;;;2.30;;
66979;SDS011;54048;51.468;-2.572;2022-10-19T10:56:38;9.00;;;3.03;;
66979;SDS011;54048;51.468;-2.572;2022-10-19T10:59:11;9.55;;;2.70;;
66979;SDS011;54048;51.468;-2.572;2022-10-19T11:02:08;9.57;;;2.38;;
66979;SDS011;54048;51.468;-2.572;2022-10-19T11:04:37;8.55;;;2.55;;
66979;SDS011;54048;51.468;-2.572;2022-10-19T11:07:39;9.32;;;2.65;;
66979;SDS011;54048;51.468;-2.572;2022-10-19T11:10:10;6.35;;;2.65;;
66979;SDS011;54048;51.468;-2.572;2022-10-19T11:12:43;7.25;;;2.40;;
66979;SDS011;54048;51.468;-2.572;2022-10-19T11:15:14;6.60;;;2.13;;
66979;SDS011;54048;51.468;-2.572;2022-10-19T11:17:54;10.85;;;2.30;;
66979;SDS011;54048;51.468;-2.572;2022-10-19T11:20:25;7.63;;;2.30;;
66979;SDS011;54048;51.468;-2.572;2022-10-19T11:25:35;9.85;;;2.60;;
66979;SDS011;54048;51.468;-2.572;2022-10-19T11:41:28;7.75;;;2.42;;
66979;SDS011;54048;51.468;-2.572;2022-10-19T11:49:47;6.38;;;1.92;;
66979;SDS011;54048;51.468;-2.572;2022-10-19T11:55:35;6.78;;;1.90;;
66979;SDS011;54048;51.468;-2.572;2022-10-19T12:00:41;5.70;;;1.90;;
66979;SDS011;54048;51.468;-2.572;2022-10-19T12:13:46;11.15;;;2.15;;
66979;SDS011;54048;51.468;-2.572;2022-10-19T12:16:14;9.35;;;2.28;;
66979;SDS011;54048;51.468;-2.572;2022-10-19T12:21:17;9.03;;;2.27;;
66979;SDS011;54048;51.468;-2.572;2022-10-19T12:23:44;5.85;;;2.70;;
66979;SDS011;54048;51.468;-2.572;2022-10-19T12:26:13;6.53;;;2.30;;
66979;SDS011;54048;51.468;-2.572;2022-10-19T12:28:40;7.90;;;2.40;;
66979;SDS011;54048;51.468;-2.572;2022-10-19T12:31:08;9.23;;;2.25;;
66979;SDS011;54048;51.468;-2.572;2022-10-19T12:33:45;10.80;;;2.10;;
66979;SDS011;54048;51.468;-2.572;2022-10-19T12:36:25;7.50;;;1.98;;
66979;SDS011;54048;51.468;-2.572;2022-10-19T12:39:09;7.10;;;1.98;;
66979;SDS011;54048;51.468;-2.572;2022-10-19T12:46:58;5.32;;;2.00;;
66979;SDS011;54048;51.468;-2.572;2022-10-19T12:51:50;7.03;;;2.10;;
66979;SDS011;54048;51.468;-2.572;2022-10-19T12:54:16;5.50;;;2.10;;
66979;SDS011;54048;51.468;-2.572;2022-10-19T12:56:47;8.23;;;2.40;;
66979;SDS011;54048;51.468;-2.572;2022-10-19T12:59:21;7.72;;;2.20;;
66979;SDS011;54048;51.468;-2.572;2022-10-19T13:01:52;10.15;;;2.05;;
66979;SDS011;54048;51.468;-2.572;2022-10-19T13:04:20;7.53;;;2.20;;
66979;SDS011;54048;51.468;-2.572;2022-10-19T13:09:22;3.75;;;1.80;;
66979;SDS011;54048;51.468;-2.572;2022-10-19T13:14:50;10.55;;;2.50;;
66979;SDS011;54048;51.468;-2.572;2022-10-19T13:22:48;8.10;;;2.53;;
66979;SDS011;54048;51.468;-2.572;2022-10-19T13:27:41;7.35;;;2.30;;
66979;SDS011;54048;51.468;-2.572;2022-10-19T13:40:57;10.20;;;2.45;;
66979;SDS011;54048;51.468;-2.572;2022-10-19T13:43:32;6.45;;;2.17;;
66979;SDS011;54048;51.468;-2.572;2022-10-19T13:46:03;7.32;;;2.30;;
66979;SDS011;54048;51.468;-2.572;2022-10-19T14:10:20;6.00;;;2.63;;
66979;SDS011;54048;51.468;-2.572;2022-10-19T14:12:46;6.15;;;1.98;;
66979;SDS011;54048;51.468;-2.572;2022-10-19T14:15:18;5.25;;;2.05;;
66979;SDS011;54048;51.468;-2.572;2022-10-19T14:17:45;8.85;;;2.40;;
66979;SDS011;54048;51.468;-2.572;2022-10-19T14:20:30;7.88;;;2.13;;
66979;SDS011;54048;51.468;-2.572;2022-10-19T14:25:55;6.97;;;2.60;;
66979;SDS011;54048;51.468;-2.572;2022-10-19T14:28:23;6.57;;;2.00;;
66979;SDS011;54048;51.468;-2.572;2022-10-19T14:33:21;8.13;;;2.20;;
66979;SDS011;54048;51.468;-2.572;2022-10-19T14:35:48;11.98;;;2.00;;
66979;SDS011;54048;51.468;-2.572;2022-10-19T14:40:54;7.68;;;2.17;;
66979;SDS011;54048;51.468;-2.572;2022-10-19T14:43:24;10.18;;;2.38;;
66979;SDS011;54048;51.468;-2.572;2022-10-19T14:46:01;9.15;;;2.03;;
66979;SDS011;54048;51.468;-2.572;2022-10-19T14:48:27;9.15;;;2.15;;
66979;SDS011;54048;51.468;-2.572;2022-10-19T14:50:53;10.63;;;2.10;;
66979;SDS011;54048;51.468;-2.572;2022-10-19T14:55:54;15.00;;;3.00;;
66979;SDS011;54048;51.468;-2.572;2022-10-19T14:58:22;8.40;;;2.17;;
66979;SDS011;54048;51.468;-2.572;2022-10-19T15:00:50;8.65;;;2.15;;
66979;SDS011;54048;51.468;-2.572;2022-10-19T15:03:19;8.50;;;2.08;;
66979;SDS011;54048;51.468;-2.572;2022-10-19T15:05:47;7.68;;;2.13;;
66979;SDS011;54048;51.468;-2.572;2022-10-19T15:08:18;6.90;;;2.33;;
66979;SDS011;54048;51.468;-2.572;2022-10-19T15:10:47;11.43;;;2.00;;
66979;SDS011;54048;51.468;-2.572;2022-10-19T15:13:23;7.57;;;2.33;;
66979;SDS011;54048;51.468;-2.572;2022-10-19T15:15:51;11.85;;;2.10;;
66979;SDS011;54048;51.468;-2.572;2022-10-19T15:18:18;8.63;;;2.78;;
66979;SDS011;54048;51.468;-2.572;2022-10-19T15:20:45;8.43;;;1.98;;
66979;SDS011;54048;51.468;-2.572;2022-10-19T15:23:44;6.57;;;2.22;;
66979;SDS011;54048;51.468;-2.572;2022-10-19T15:26:21;9.55;;;2.42;;
66979;SDS011;54048;51.468;-2.572;2022-10-19T15:28:53;10.35;;;2.05;;
66979;SDS011;54048;51.468;-2.572;2022-10-19T15:33:49;11.20;;;2.42;;
66979;SDS011;54048;51.468;-2.572;2022-10-19T15:36:15;12.23;;;2.30;;
66979;SDS011;54048;51.468;-2.572;2022-10-19T15:38:45;10.82;;;2.95;;
66979;SDS011;54048;51.468;-2.572;2022-10-19T15:41:19;6.10;;;1.98;;
66979;SDS011;54048;51.468;-2.572;2022-10-19T15:43:49;14.48;;;2.53;;
66979;SDS011;54048;51.468;-2.572;2022-10-19T15:46:20;12.00;;;1.98;;
66979;SDS011;54048;51.468;-2.572;2022-10-19T15:48:56;9.18;;;2.00;;
66979;SDS011;54048;51.468;-2.572;2022-10-19T15:53:52;10.25;;;2.30;;
66979;SDS011;54048;51.468;-2.572;2022-10-19T15:56:29;11.35;;;2.65;;
66979;SDS011;54048;51.468;-2.572;2022-10-19T15:58:57;11.50;;;2.47;;
66979;SDS011;54048;51.468;-2.572;2022-10-19T16:01:25;12.57;;;2.40;;
66979;SDS011;54048;51.468;-2.572;2022-10-19T16:03:52;14.05;;;3.17;;
66979;SDS011;54048;51.468;-2.572;2022-10-19T16:06:18;10.68;;;2.28;;
66979;SDS011;54048;51.468;-2.572;2022-10-19T16:08:45;6.65;;;2.17;;
66979;SDS011;54048;51.468;-2.572;2022-10-19T16:11:14;7.22;;;2.05;;
66979;SDS011;54048;51.468;-2.572;2022-10-19T16:13:40;6.88;;;2.25;;
66979;SDS011;54048;51.468;-2.572;2022-10-19T16:16:06;7.00;;;2.33;;
66979;SDS011;54048;51.468;-2.572;2022-10-19T16:18:34;8.82;;;2.30;;
66979;SDS011;54048;51.468;-2.572;2022-10-19T16:20:59;6.55;;;2.40;;
66979;SDS011;54048;51.468;-2.572;2022-10-19T16:23:25;10.32;;;2.42;;
66979;SDS011;54048;51.468;-2.572;2022-10-19T16:25:50;14.40;;;2.45;;
66979;SDS011;54048;51.468;-2.572;2022-10-19T16:28:17;10.95;;;2.33;;
66979;SDS011;54048;51.468;-2.572;2022-10-19T16:30:42;11.88;;;2.95;;
66979;SDS011;54048;51.468;-2.572;2022-10-19T16:33:08;9.02;;;2.33;;
66979;SDS011;54048;51.468;-2.572;2022-10-19T16:35:33;13.25;;;2.67;;
66979;SDS011;54048;51.468;-2.572;2022-10-19T16:38:01;10.43;;;2.42;;
66979;SDS011;54048;51.468;-2.572;2022-10-19T16:40:26;12.57;;;3.03;;
66979;SDS011;54048;51.468;-2.572;2022-10-19T16:42:52;7.60;;;2.65;;
66979;SDS011;54048;51.468;-2.572;2022-10-19T16:45:20;10.57;;;2.55;;
66979;SDS011;54048;51.468;-2.572;2022-10-19T16:47:48;10.32;;;2.53;;
66979;SDS011;54048;51.468;-2.572;2022-10-19T16:50:13;7.95;;;2.50;;
66979;SDS011;54048;51.468;-2.572;2022-10-19T16:52:39;13.05;;;2.80;;
66979;SDS011;54048;51.468;-2.572;2022-10-19T16:55:06;10.15;;;2.63;;
66979;SDS011;54048;51.468;-2.572;2022-10-19T16:57:31;13.82;;;3.60;;
66979;SDS011;54048;51.468;-2.572;2022-10-19T16:59:57;12.40;;;3.10;;
66979;SDS011;54048;51.468;-2.572;2022-10-19T17:02:22;10.90;;;2.97;;
66979;SDS011;54048;51.468;-2.572;2022-10-19T17:04:48;8.68;;;2.40;;
66979;SDS011;54048;51.468;-2.572;2022-10-19T17:07:13;5.78;;;2.22;;
66979;SDS011;54048;51.468;-2.572;2022-10-19T17:09:39;11.73;;;2.78;;
66979;SDS011;54048;51.468;-2.572;2022-10-19T17:12:05;17.55;;;3.40;;
66979;SDS011;54048;51.468;-2.572;2022-10-19T17:14:31;9.50;;;2.50;;
66979;SDS011;54048;51.468;-2.572;2022-10-19T17:16:56;10.32;;;2.83;;
66979;SDS011;54048;51.468;-2.572;2022-10-19T17:19:22;11.40;;;2.67;;
66979;SDS011;54048;51.468;-2.572;2022-10-19T17:21:47;10.52;;;2.55;;
66979;SDS011;54048;51.468;-2.572;2022-10-19T17:24:14;10.05;;;2.58;;
66979;SDS011;54048;51.468;-2.572;2022-10-19T17:26:41;24.85;;;3.55;;
66979;SDS011;54048;51.468;-2.572;2022-10-19T17:29:09;7.65;;;2.80;;
66979;SDS011;54048;51.468;-2.572;2022-10-19T17:31:35;12.30;;;3.22;;
66979;SDS011;54048;51.468;-2.572;2022-10-19T17:34:01;11.55;;;2.40;;
66979;SDS011;54048;51.468;-2.572;2022-10-19T17:36:28;11.15;;;2.97;;
66979;SDS011;54048;51.468;-2.572;2022-10-19T17:38:55;7.93;;;2.42;;
66979;SDS011;54048;51.468;-2.572;2022-10-19T17:41:26;14.52;;;2.95;;
66979;SDS011;54048;51.468;-2.572;2022-10-19T17:43:52;16.73;;;3.30;;
66979;SDS011;54048;51.468;-2.572;2022-10-19T17:46:19;11.23;;;2.88;;
66979;SDS011;54048;51.468;-2.572;2022-10-19T17:48:46;9.50;;;3.30;;
66979;SDS011;54048;51.468;-2.572;2022-10-19T17:51:16;15.73;;;3.47;;
66979;SDS011;54048;51.468;-2.572;2022-10-19T17:53:44;14.73;;;3.40;;
66979;SDS011;54048;51.468;-2.572;2022-10-19T17:56:10;8.35;;;3.35;;
66979;SDS011;54048;51.468;-2.572;2022-10-19T17:58:37;10.82;;;3.42;;
66979;SDS011;54048;51.468;-2.572;2022-10-19T18:01:02;12.00;;;3.72;;
66979;SDS011;54048;51.468;-2.572;2022-10-19T18:03:30;13.30;;;3.83;;
66979;SDS011;54048;51.468;-2.572;2022-10-19T18:06:01;13.55;;;3.08;;
66979;SDS011;54048;51.468;-2.572;2022-10-19T18:08:28;9.55;;;3.28;;
66979;SDS011;54048;51.468;-2.572;2022-10-19T18:10:59;12.07;;;3.90;;
66979;SDS011;54048;51.468;-2.572;2022-10-19T18:13:26;14.38;;;3.70;;
66979;SDS011;54048;51.468;-2.572;2022-10-19T18:15:52;12.48;;;3.45;;
66979;SDS011;54048;51.468;-2.572;2022-10-19T18:18:22;11.80;;;3.60;;
66979;SDS011;54048;51.468;-2.572;2022-10-19T18:20:48;18.48;;;3.92;;
66979;SDS011;54048;51.468;-2.572;2022-10-19T18:23:14;14.38;;;3.97;;
66979;SDS011;54048;51.468;-2.572;2022-10-19T18:25:39;20.52;;;4.78;;
66979;SDS011;54048;51.468;-2.572;2022-10-19T18:28:04;15.95;;;4.15;;
66979;SDS011;54048;51.468;-2.572;2022-10-19T18:30:33;15.48;;;4.38;;
66979;SDS011;54048;51.468;-2.572;2022-10-19T18:33:00;17.85;;;5.30;;
66979;SDS011;54048;51.468;-2.572;2022-10-19T18:35:25;15.07;;;5.00;;
66979;SDS011;54048;51.468;-2.572;2022-10-19T18:37:50;18.20;;;5.07;;